TRA58V LEPA-EBBR
Flight info
| Callsign | TRA58V |
|---|---|
| Flight time | 1h 54m |
| Altitude | 36000 |
| Route | GALAT DCT RODRA N861 OLOXO DCT OKABI DCT TOU DCT ADABI DCT BOKNO UN858 VANAD UN874 BAMES UT191 PODEM UN873 BAZOS DCT BELDI DCT VEKIN/N0432F260 Z173 ARVOL |
| Aircraft | B737/M-SDE2E3FGHIRWXY/LB1 |
Departure
| Time | 2026-05-07 18:29 |
|---|---|
| Airport | Palma de Mallorca Airport (LEPA) |
Arrival
| Time | 2026-05-07 20:24 |
|---|---|
| Airport | Brussels Airport (EBBR) |
| Time | Latitude | Longitude | Altitude | Speed | Heading |
|---|---|---|---|---|---|
| 2026-05-07 17:57 | 39.54836 | 2.73574 | 35 ft | 0 kts | 58° |
| 2026-05-07 17:59 | 39.54836 | 2.73573 | 35 ft | 0 kts | 58° |
| 2026-05-07 18:10 | 39.54831 | 2.73563 | 35 ft | 2 kts | 58° |
| 2026-05-07 18:10 | 39.54821 | 2.73549 | 35 ft | 2 kts | 39° |
| 2026-05-07 18:10 | 39.54809 | 2.73538 | 35 ft | 2 kts | 25° |
| 2026-05-07 18:11 | 39.54796 | 2.73532 | 35 ft | 2 kts | 11° |
| 2026-05-07 18:11 | 39.54785 | 2.73530 | 35 ft | 2 kts | 1° |
| 2026-05-07 18:11 | 39.54766 | 2.73534 | 35 ft | 2 kts | 341° |
| 2026-05-07 18:11 | 39.54756 | 2.73539 | 35 ft | 0 kts | 330° |
| 2026-05-07 18:12 | 39.54751 | 2.73543 | 35 ft | 0 kts | 328° |
| 2026-05-07 18:14 | 39.54755 | 2.73541 | 35 ft | 2 kts | 326° |
| 2026-05-07 18:14 | 39.54771 | 2.73497 | 35 ft | 8 kts | 264° |
| 2026-05-07 18:14 | 39.54728 | 2.73472 | 35 ft | 8 kts | 154° |
| 2026-05-07 18:15 | 39.54664 | 2.73522 | 35 ft | 12 kts | 148° |
| 2026-05-07 18:15 | 39.54618 | 2.73601 | 35 ft | 11 kts | 110° |
| 2026-05-07 18:15 | 39.54562 | 2.73664 | 35 ft | 10 kts | 147° |
| 2026-05-07 18:15 | 39.54508 | 2.73708 | 35 ft | 7 kts | 149° |
| 2026-05-07 18:16 | 39.54491 | 2.73721 | 35 ft | 0 kts | 149° |
| 2026-05-07 18:16 | 39.54490 | 2.73721 | 35 ft | 0 kts | 149° |
| 2026-05-07 18:27 | 39.54490 | 2.73722 | 35 ft | 0 kts | 149° |
| 2026-05-07 18:27 | 39.54456 | 2.73748 | 35 ft | 8 kts | 150° |
| 2026-05-07 18:27 | 39.54417 | 2.73783 | 35 ft | 4 kts | 103° |
| 2026-05-07 18:27 | 39.54424 | 2.73805 | 35 ft | 1 kts | 60° |
| 2026-05-07 18:28 | 39.54424 | 2.73806 | 35 ft | 0 kts | 60° |
| 2026-05-07 18:28 | 39.54438 | 2.73838 | 35 ft | 18 kts | 60° |
| 2026-05-07 18:28 | 39.54643 | 2.74268 | 35 ft | 91 kts | 59° |
| 2026-05-07 18:28 | 39.55088 | 2.75206 | 37 ft | 151 kts | 58° |
| 2026-05-07 18:29 | 39.55681 | 2.76429 | 593 ft | 160 kts | 58° |
| 2026-05-07 18:29 | 39.56249 | 2.77561 | 1503 ft | 151 kts | 62° |
| 2026-05-07 18:29 | 39.56757 | 2.78709 | 2131 ft | 151 kts | 65° |
| 2026-05-07 18:29 | 39.57288 | 2.79957 | 2540 ft | 166 kts | 63° |
| 2026-05-07 18:30 | 39.57911 | 2.81268 | 3045 ft | 176 kts | 61° |
| 2026-05-07 18:30 | 39.58580 | 2.82662 | 3484 ft | 190 kts | 61° |
| 2026-05-07 18:30 | 39.59280 | 2.84172 | 3956 ft | 203 kts | 62° |
| 2026-05-07 18:30 | 39.60003 | 2.85775 | 4495 ft | 213 kts | 62° |
| 2026-05-07 18:31 | 39.60763 | 2.87449 | 5180 ft | 217 kts | 61° |
| 2026-05-07 18:31 | 39.61530 | 2.89121 | 5785 ft | 220 kts | 61° |
| 2026-05-07 18:31 | 39.62315 | 2.90829 | 5993 ft | 220 kts | 59° |
| 2026-05-07 18:31 | 39.63402 | 2.92180 | 5980 ft | 223 kts | 26° |
| 2026-05-07 18:32 | 39.64945 | 2.92348 | 5982 ft | 231 kts | 346° |
| 2026-05-07 18:32 | 39.66267 | 2.91139 | 5980 ft | 241 kts | 306° |
| 2026-05-07 18:32 | 39.66890 | 2.89111 | 5987 ft | 242 kts | 284° |
| 2026-05-07 18:32 | 39.67245 | 2.87001 | 5982 ft | 243 kts | 283° |
| 2026-05-07 18:33 | 39.67613 | 2.84837 | 5982 ft | 243 kts | 284° |
| 2026-05-07 18:33 | 39.67961 | 2.82714 | 5985 ft | 243 kts | 282° |
| 2026-05-07 18:33 | 39.68261 | 2.80539 | 6014 ft | 250 kts | 280° |
| 2026-05-07 18:33 | 39.68473 | 2.78263 | 6688 ft | 254 kts | 275° |
| 2026-05-07 18:34 | 39.68538 | 2.76016 | 7593 ft | 248 kts | 270° |
| 2026-05-07 18:34 | 39.68628 | 2.73813 | 8282 ft | 251 kts | 285° |
| 2026-05-07 18:34 | 39.69334 | 2.71716 | 8782 ft | 262 kts | 303° |
| 2026-05-07 18:34 | 39.70287 | 2.69629 | 9277 ft | 276 kts | 301° |
| 2026-05-07 18:35 | 39.71195 | 2.67367 | 9827 ft | 289 kts | 297° |
| 2026-05-07 18:35 | 39.72095 | 2.64994 | 10391 ft | 300 kts | 302° |
| 2026-05-07 18:35 | 39.73331 | 2.62779 | 10850 ft | 314 kts | 311° |
| 2026-05-07 18:35 | 39.74814 | 2.60587 | 11300 ft | 329 kts | 313° |
| 2026-05-07 18:36 | 39.76359 | 2.58318 | 11706 ft | 346 kts | 312° |
| 2026-05-07 18:36 | 39.77947 | 2.55886 | 12125 ft | 363 kts | 311° |
| 2026-05-07 18:36 | 39.79584 | 2.53287 | 12541 ft | 378 kts | 310° |
| 2026-05-07 18:36 | 39.81253 | 2.50578 | 13151 ft | 388 kts | 309° |
| 2026-05-07 18:37 | 39.82930 | 2.47828 | 13812 ft | 395 kts | 309° |
| 2026-05-07 18:37 | 39.84630 | 2.45032 | 14566 ft | 400 kts | 308° |
| 2026-05-07 18:37 | 39.86368 | 2.42174 | 15361 ft | 403 kts | 308° |
| 2026-05-07 18:37 | 39.88108 | 2.39314 | 16101 ft | 407 kts | 308° |
| 2026-05-07 18:38 | 39.89852 | 2.36446 | 16785 ft | 411 kts | 308° |
| 2026-05-07 18:38 | 39.91649 | 2.33490 | 17475 ft | 416 kts | 307° |
| 2026-05-07 18:38 | 39.93439 | 2.30544 | 18161 ft | 420 kts | 306° |
| 2026-05-07 18:38 | 39.95249 | 2.27563 | 18859 ft | 423 kts | 306° |
| 2026-05-07 18:39 | 39.97072 | 2.24561 | 19514 ft | 427 kts | 306° |
| 2026-05-07 18:39 | 39.99073 | 2.21672 | 20171 ft | 433 kts | 315° |
| 2026-05-07 18:39 | 40.01432 | 2.19213 | 20764 ft | 440 kts | 325° |
| 2026-05-07 18:39 | 40.04136 | 2.17274 | 21399 ft | 444 kts | 335° |
| 2026-05-07 18:40 | 40.07041 | 2.15918 | 22036 ft | 448 kts | 343° |
| 2026-05-07 18:40 | 40.10066 | 2.14864 | 22644 ft | 451 kts | 345° |
| 2026-05-07 18:40 | 40.13134 | 2.13863 | 23227 ft | 455 kts | 345° |
| 2026-05-07 18:40 | 40.16200 | 2.12826 | 23747 ft | 460 kts | 344° |
| 2026-05-07 18:41 | 40.19260 | 2.11723 | 24269 ft | 464 kts | 343° |
| 2026-05-07 18:41 | 40.22402 | 2.10515 | 24762 ft | 469 kts | 342° |
| 2026-05-07 18:41 | 40.25532 | 2.09248 | 25275 ft | 473 kts | 341° |
| 2026-05-07 18:41 | 40.28651 | 2.07938 | 25779 ft | 477 kts | 340° |
| 2026-05-07 18:42 | 40.31854 | 2.06553 | 26270 ft | 481 kts | 340° |
| 2026-05-07 18:42 | 40.35025 | 2.05154 | 26783 ft | 485 kts | 340° |
| 2026-05-07 18:42 | 40.38213 | 2.03728 | 27286 ft | 488 kts | 339° |
| 2026-05-07 18:42 | 40.41441 | 2.02272 | 27755 ft | 492 kts | 339° |
| 2026-05-07 18:43 | 40.44694 | 2.00799 | 28262 ft | 494 kts | 338° |
| 2026-05-07 18:43 | 40.47966 | 1.99312 | 28623 ft | 500 kts | 338° |
| 2026-05-07 18:43 | 40.51288 | 1.97797 | 29058 ft | 503 kts | 338° |
| 2026-05-07 18:43 | 40.54567 | 1.96303 | 29659 ft | 503 kts | 338° |
| 2026-05-07 18:44 | 40.57879 | 1.94792 | 30225 ft | 503 kts | 338° |
| 2026-05-07 18:44 | 40.61174 | 1.93289 | 30738 ft | 504 kts | 338° |
| 2026-05-07 18:44 | 40.64510 | 1.91765 | 31242 ft | 503 kts | 337° |
| 2026-05-07 18:44 | 40.67803 | 1.90256 | 31706 ft | 504 kts | 338° |
| 2026-05-07 18:45 | 40.71116 | 1.88739 | 32241 ft | 502 kts | 337° |
| 2026-05-07 18:45 | 40.74353 | 1.87256 | 32807 ft | 499 kts | 336° |
| 2026-05-07 18:45 | 40.77616 | 1.85759 | 33317 ft | 497 kts | 336° |
| 2026-05-07 18:45 | 40.80918 | 1.84241 | 33742 ft | 497 kts | 335° |
| 2026-05-07 18:46 | 40.84178 | 1.82734 | 34009 ft | 501 kts | 336° |
| 2026-05-07 18:46 | 40.87480 | 1.81208 | 34259 ft | 502 kts | 335° |
| 2026-05-07 18:46 | 40.90729 | 1.79709 | 34590 ft | 501 kts | 335° |
| 2026-05-07 18:46 | 40.94001 | 1.78201 | 35075 ft | 495 kts | 336° |
| 2026-05-07 18:47 | 40.97244 | 1.76709 | 35603 ft | 487 kts | 336° |
| 2026-05-07 18:47 | 41.00424 | 1.75248 | 35845 ft | 479 kts | 336° |
| 2026-05-07 18:47 | 41.03553 | 1.73897 | 35948 ft | 476 kts | 338° |
| 2026-05-07 18:48 | 41.10014 | 1.72038 | 35955 ft | 478 kts | 347° |
| 2026-05-07 18:48 | 41.16626 | 1.70989 | 35958 ft | 479 kts | 350° |
| 2026-05-07 18:49 | 41.23276 | 1.70086 | 35954 ft | 480 kts | 350° |
| 2026-05-07 18:49 | 41.29903 | 1.69156 | 35958 ft | 480 kts | 349° |
| 2026-05-07 18:50 | 41.36556 | 1.68171 | 35950 ft | 481 kts | 349° |
| 2026-05-07 18:50 | 41.43214 | 1.67159 | 35958 ft | 482 kts | 349° |
| 2026-05-07 18:51 | 41.49835 | 1.66136 | 35956 ft | 479 kts | 349° |
| 2026-05-07 18:51 | 41.56467 | 1.65100 | 35967 ft | 483 kts | 349° |
| 2026-05-07 18:52 | 41.63122 | 1.64055 | 35963 ft | 482 kts | 349° |
| 2026-05-07 18:52 | 41.69749 | 1.63009 | 35964 ft | 482 kts | 349° |
| 2026-05-07 18:53 | 41.76431 | 1.61952 | 35968 ft | 483 kts | 349° |
| 2026-05-07 18:53 | 41.83075 | 1.60905 | 35974 ft | 483 kts | 349° |
| 2026-05-07 18:54 | 41.89731 | 1.59856 | 35968 ft | 482 kts | 349° |
| 2026-05-07 18:54 | 41.96394 | 1.58802 | 35974 ft | 483 kts | 349° |
| 2026-05-07 18:55 | 42.03049 | 1.57747 | 35962 ft | 484 kts | 349° |
| 2026-05-07 18:55 | 42.09739 | 1.56686 | 35965 ft | 483 kts | 349° |
| 2026-05-07 18:56 | 42.16400 | 1.55629 | 35960 ft | 483 kts | 349° |
| 2026-05-07 18:56 | 42.22973 | 1.54578 | 35962 ft | 483 kts | 349° |
| 2026-05-07 18:57 | 42.29688 | 1.53503 | 35963 ft | 483 kts | 349° |
| 2026-05-07 18:57 | 42.36321 | 1.52439 | 35967 ft | 484 kts | 350° |
| 2026-05-07 18:58 | 42.43013 | 1.51366 | 35968 ft | 483 kts | 349° |
| 2026-05-07 18:58 | 42.49678 | 1.50291 | 35957 ft | 484 kts | 349° |
| 2026-05-07 18:59 | 42.56329 | 1.49221 | 35963 ft | 483 kts | 349° |
| 2026-05-07 18:59 | 42.62995 | 1.48146 | 35965 ft | 482 kts | 350° |
| 2026-05-07 19:00 | 42.69660 | 1.47074 | 35968 ft | 482 kts | 349° |
| 2026-05-07 19:00 | 42.76317 | 1.46003 | 35966 ft | 483 kts | 350° |
| 2026-05-07 19:01 | 42.82990 | 1.44930 | 35971 ft | 482 kts | 350° |
| 2026-05-07 19:01 | 42.89647 | 1.43855 | 35960 ft | 481 kts | 350° |
| 2026-05-07 19:02 | 42.96308 | 1.42776 | 35956 ft | 483 kts | 350° |
| 2026-05-07 19:02 | 43.02985 | 1.41690 | 35948 ft | 483 kts | 350° |
| 2026-05-07 19:03 | 43.09589 | 1.40616 | 35947 ft | 482 kts | 350° |
| 2026-05-07 19:03 | 43.16246 | 1.39529 | 35944 ft | 480 kts | 350° |
| 2026-05-07 19:04 | 43.22878 | 1.38445 | 35938 ft | 481 kts | 350° |
| 2026-05-07 19:04 | 43.29562 | 1.37349 | 35938 ft | 480 kts | 350° |
| 2026-05-07 19:05 | 43.36184 | 1.36261 | 35935 ft | 480 kts | 350° |
| 2026-05-07 19:05 | 43.42805 | 1.35173 | 35932 ft | 479 kts | 350° |
| 2026-05-07 19:06 | 43.49388 | 1.34089 | 35937 ft | 478 kts | 349° |
| 2026-05-07 19:06 | 43.59244 | 1.32458 | 35941 ft | 477 kts | 349° |
| 2026-05-07 19:07 | 43.65870 | 1.31359 | 35933 ft | 477 kts | 350° |
| 2026-05-07 19:07 | 43.72384 | 1.30125 | 35930 ft | 474 kts | 347° |
| 2026-05-07 19:08 | 43.78881 | 1.28441 | 35930 ft | 473 kts | 345° |
| 2026-05-07 19:08 | 43.85300 | 1.26677 | 35927 ft | 473 kts | 346° |
| 2026-05-07 19:09 | 43.91774 | 1.24930 | 35922 ft | 472 kts | 346° |
| 2026-05-07 19:09 | 43.98201 | 1.23229 | 35912 ft | 473 kts | 346° |
| 2026-05-07 19:10 | 44.04652 | 1.21539 | 35913 ft | 472 kts | 346° |
| 2026-05-07 19:10 | 44.11116 | 1.19851 | 35909 ft | 472 kts | 346° |
| 2026-05-07 19:11 | 44.17584 | 1.18162 | 35916 ft | 472 kts | 346° |
| 2026-05-07 19:11 | 44.23896 | 1.16511 | 35919 ft | 471 kts | 346° |
| 2026-05-07 19:12 | 44.30342 | 1.14820 | 35660 ft | 471 kts | 346° |
| 2026-05-07 19:12 | 44.33531 | 1.13983 | 35836 ft | 469 kts | 346° |
| 2026-05-07 19:12 | 44.36791 | 1.13125 | 35907 ft | 473 kts | 346° |
| 2026-05-07 19:13 | 44.43249 | 1.11422 | 35937 ft | 472 kts | 346° |
| 2026-05-07 19:13 | 44.49667 | 1.09728 | 35943 ft | 471 kts | 346° |
| 2026-05-07 19:14 | 44.56117 | 1.08023 | 35947 ft | 472 kts | 346° |
| 2026-05-07 19:14 | 44.62557 | 1.06316 | 35941 ft | 471 kts | 347° |
| 2026-05-07 19:15 | 44.68962 | 1.04612 | 35948 ft | 472 kts | 346° |
| 2026-05-07 19:15 | 44.75417 | 1.02891 | 35941 ft | 471 kts | 346° |
| 2026-05-07 19:16 | 44.81839 | 1.01176 | 35951 ft | 471 kts | 346° |
| 2026-05-07 19:16 | 44.88272 | 0.99454 | 35948 ft | 470 kts | 347° |
| 2026-05-07 19:17 | 44.94701 | 0.97730 | 35949 ft | 471 kts | 347° |
| 2026-05-07 19:17 | 45.01125 | 0.96002 | 35951 ft | 471 kts | 347° |
| 2026-05-07 19:18 | 45.07532 | 0.94276 | 35943 ft | 471 kts | 347° |
| 2026-05-07 19:18 | 45.13969 | 0.92538 | 35951 ft | 470 kts | 347° |
| 2026-05-07 19:19 | 45.20246 | 0.90839 | 35941 ft | 470 kts | 346° |
| 2026-05-07 19:19 | 45.26692 | 0.89089 | 35944 ft | 471 kts | 346° |
| 2026-05-07 19:20 | 45.33121 | 0.87341 | 35943 ft | 470 kts | 346° |
| 2026-05-07 19:20 | 45.39516 | 0.85598 | 35938 ft | 471 kts | 347° |
| 2026-05-07 19:21 | 45.45975 | 0.83834 | 35942 ft | 470 kts | 346° |
| 2026-05-07 19:21 | 45.52394 | 0.82076 | 35945 ft | 470 kts | 347° |
| 2026-05-07 19:22 | 45.58798 | 0.80318 | 35951 ft | 471 kts | 346° |
| 2026-05-07 19:22 | 45.65192 | 0.78559 | 35959 ft | 470 kts | 346° |
| 2026-05-07 19:23 | 45.71600 | 0.76792 | 35955 ft | 470 kts | 346° |
| 2026-05-07 19:23 | 45.78024 | 0.75017 | 35961 ft | 470 kts | 346° |
| 2026-05-07 19:24 | 45.84461 | 0.73233 | 35958 ft | 470 kts | 346° |
| 2026-05-07 19:24 | 45.90862 | 0.71456 | 35960 ft | 469 kts | 346° |
| 2026-05-07 19:25 | 45.97271 | 0.69672 | 35959 ft | 469 kts | 346° |
| 2026-05-07 19:25 | 46.03649 | 0.67893 | 35957 ft | 469 kts | 346° |
| 2026-05-07 19:26 | 46.09995 | 0.66117 | 35955 ft | 470 kts | 346° |
| 2026-05-07 19:26 | 46.16200 | 0.64379 | 35959 ft | 469 kts | 346° |
| 2026-05-07 19:27 | 46.22530 | 0.62600 | 35957 ft | 470 kts | 346° |
| 2026-05-07 19:27 | 46.28907 | 0.60805 | 35963 ft | 470 kts | 346° |
| 2026-05-07 19:28 | 46.35305 | 0.58999 | 35958 ft | 469 kts | 346° |
| 2026-05-07 19:28 | 46.41698 | 0.57190 | 35961 ft | 469 kts | 346° |
| 2026-05-07 19:29 | 46.48084 | 0.55378 | 35962 ft | 469 kts | 346° |
| 2026-05-07 19:29 | 46.54558 | 0.53862 | 35963 ft | 471 kts | 353° |
| 2026-05-07 19:30 | 46.61089 | 0.54448 | 35965 ft | 476 kts | 8° |
| 2026-05-07 19:30 | 46.67556 | 0.56427 | 35967 ft | 477 kts | 12° |
| 2026-05-07 19:31 | 46.74000 | 0.58699 | 35967 ft | 477 kts | 12° |
| 2026-05-07 19:31 | 46.80443 | 0.60998 | 35979 ft | 476 kts | 12° |
| 2026-05-07 19:32 | 46.86863 | 0.63345 | 35978 ft | 477 kts | 12° |
| 2026-05-07 19:32 | 46.93298 | 0.65718 | 35978 ft | 477 kts | 12° |
| 2026-05-07 19:33 | 46.99734 | 0.68094 | 35982 ft | 476 kts | 12° |
| 2026-05-07 19:33 | 47.06146 | 0.70462 | 35983 ft | 476 kts | 12° |
| 2026-05-07 19:34 | 47.12433 | 0.72786 | 35984 ft | 476 kts | 12° |
| 2026-05-07 19:34 | 47.18761 | 0.75131 | 35985 ft | 476 kts | 12° |
| 2026-05-07 19:35 | 47.25171 | 0.77512 | 35983 ft | 475 kts | 12° |
| 2026-05-07 19:35 | 47.31519 | 0.79875 | 35991 ft | 475 kts | 12° |
| 2026-05-07 19:36 | 47.37906 | 0.82258 | 35995 ft | 475 kts | 12° |
| 2026-05-07 19:36 | 47.44302 | 0.84650 | 35995 ft | 475 kts | 12° |
| 2026-05-07 19:37 | 47.50694 | 0.87047 | 35992 ft | 475 kts | 12° |
| 2026-05-07 19:37 | 47.57094 | 0.89452 | 35995 ft | 475 kts | 12° |
| 2026-05-07 19:38 | 47.63491 | 0.91864 | 35997 ft | 474 kts | 12° |
| 2026-05-07 19:38 | 47.69871 | 0.94275 | 35999 ft | 474 kts | 12° |
| 2026-05-07 19:39 | 47.76266 | 0.96698 | 36002 ft | 473 kts | 12° |
| 2026-05-07 19:39 | 47.82316 | 0.99098 | 36004 ft | 474 kts | 15° |
| 2026-05-07 19:40 | 47.88557 | 1.02279 | 36010 ft | 474 kts | 18° |
| 2026-05-07 19:40 | 47.94723 | 1.05702 | 36019 ft | 474 kts | 19° |
| 2026-05-07 19:41 | 48.00863 | 1.09108 | 36022 ft | 475 kts | 18° |
| 2026-05-07 19:41 | 48.07055 | 1.12496 | 36022 ft | 475 kts | 18° |
| 2026-05-07 19:42 | 48.13150 | 1.15804 | 36023 ft | 474 kts | 18° |
| 2026-05-07 19:42 | 48.19317 | 1.19139 | 36023 ft | 474 kts | 18° |
| 2026-05-07 19:43 | 48.25521 | 1.22494 | 36017 ft | 473 kts | 18° |
| 2026-05-07 19:43 | 48.31712 | 1.25848 | 36013 ft | 473 kts | 18° |
| 2026-05-07 19:44 | 48.37860 | 1.29188 | 36014 ft | 473 kts | 18° |
| 2026-05-07 19:44 | 48.44033 | 1.32548 | 36015 ft | 473 kts | 18° |
| 2026-05-07 19:45 | 48.50230 | 1.35931 | 36016 ft | 473 kts | 18° |
| 2026-05-07 19:45 | 48.56391 | 1.39303 | 36017 ft | 473 kts | 18° |
| 2026-05-07 19:46 | 48.62550 | 1.42683 | 36019 ft | 472 kts | 18° |
| 2026-05-07 19:46 | 48.68705 | 1.46070 | 36019 ft | 471 kts | 18° |
| 2026-05-07 19:47 | 48.74871 | 1.49471 | 36020 ft | 471 kts | 18° |
| 2026-05-07 19:47 | 48.81015 | 1.52869 | 36022 ft | 471 kts | 18° |
| 2026-05-07 19:48 | 48.87151 | 1.56271 | 36023 ft | 471 kts | 18° |
| 2026-05-07 19:48 | 48.93276 | 1.59676 | 36025 ft | 470 kts | 18° |
| 2026-05-07 19:49 | 48.99430 | 1.63106 | 36025 ft | 471 kts | 18° |
| 2026-05-07 19:49 | 49.05547 | 1.66524 | 36026 ft | 471 kts | 19° |
| 2026-05-07 19:50 | 49.11685 | 1.69964 | 36032 ft | 470 kts | 19° |
| 2026-05-07 19:50 | 49.17805 | 1.73403 | 36025 ft | 469 kts | 19° |
| 2026-05-07 19:51 | 49.23936 | 1.76856 | 36031 ft | 469 kts | 19° |
| 2026-05-07 19:51 | 49.30010 | 1.80287 | 36030 ft | 469 kts | 19° |
| 2026-05-07 19:52 | 49.36115 | 1.83743 | 36032 ft | 470 kts | 19° |
| 2026-05-07 19:52 | 49.42260 | 1.87232 | 36032 ft | 470 kts | 19° |
| 2026-05-07 19:53 | 49.48333 | 1.90825 | 36038 ft | 470 kts | 22° |
| 2026-05-07 19:53 | 49.53921 | 1.96020 | 36046 ft | 473 kts | 38° |
| 2026-05-07 19:54 | 49.58829 | 2.02754 | 35915 ft | 475 kts | 43° |
| 2026-05-07 19:54 | 49.61208 | 2.06266 | 35682 ft | 474 kts | 43° |
| 2026-05-07 19:54 | 49.63550 | 2.09760 | 35455 ft | 470 kts | 43° |
| 2026-05-07 19:55 | 49.65907 | 2.13293 | 35214 ft | 468 kts | 43° |
| 2026-05-07 19:55 | 49.68178 | 2.16840 | 34934 ft | 469 kts | 47° |
| 2026-05-07 19:55 | 49.70248 | 2.20651 | 34551 ft | 470 kts | 51° |
| 2026-05-07 19:55 | 49.72236 | 2.24675 | 34157 ft | 470 kts | 53° |
| 2026-05-07 19:56 | 49.74151 | 2.28701 | 33771 ft | 470 kts | 53° |
| 2026-05-07 19:56 | 49.76173 | 2.32705 | 33375 ft | 471 kts | 49° |
| 2026-05-07 19:56 | 49.78407 | 2.36394 | 32983 ft | 472 kts | 44° |
| 2026-05-07 19:56 | 49.80773 | 2.39866 | 32593 ft | 472 kts | 41° |
| 2026-05-07 19:57 | 49.83196 | 2.43242 | 32205 ft | 472 kts | 40° |
| 2026-05-07 19:57 | 49.85655 | 2.46622 | 31810 ft | 472 kts | 40° |
| 2026-05-07 19:57 | 49.88094 | 2.49992 | 31419 ft | 472 kts | 41° |
| 2026-05-07 19:57 | 49.90537 | 2.53413 | 31025 ft | 472 kts | 41° |
| 2026-05-07 19:58 | 49.92932 | 2.56817 | 30632 ft | 473 kts | 41° |
| 2026-05-07 19:58 | 49.95353 | 2.60303 | 30230 ft | 474 kts | 42° |
| 2026-05-07 19:58 | 49.97736 | 2.63765 | 29835 ft | 475 kts | 42° |
| 2026-05-07 19:58 | 50.00156 | 2.67309 | 29434 ft | 475 kts | 43° |
| 2026-05-07 19:59 | 50.02525 | 2.70794 | 29042 ft | 476 kts | 43° |
| 2026-05-07 19:59 | 50.04953 | 2.74380 | 28636 ft | 476 kts | 43° |
| 2026-05-07 19:59 | 50.07335 | 2.77908 | 28244 ft | 477 kts | 43° |
| 2026-05-07 19:59 | 50.09729 | 2.81460 | 27850 ft | 478 kts | 43° |
| 2026-05-07 20:00 | 50.12109 | 2.84998 | 27457 ft | 479 kts | 43° |
| 2026-05-07 20:00 | 50.14518 | 2.88584 | 27055 ft | 480 kts | 43° |
| 2026-05-07 20:00 | 50.16931 | 2.92181 | 26660 ft | 481 kts | 43° |
| 2026-05-07 20:00 | 50.19352 | 2.95795 | 26262 ft | 481 kts | 43° |
| 2026-05-07 20:01 | 50.21748 | 2.99377 | 25869 ft | 482 kts | 43° |
| 2026-05-07 20:01 | 50.24170 | 3.03003 | 25467 ft | 481 kts | 43° |
| 2026-05-07 20:01 | 50.26587 | 3.06628 | 25066 ft | 477 kts | 43° |
| 2026-05-07 20:01 | 50.28939 | 3.10159 | 24673 ft | 475 kts | 43° |
| 2026-05-07 20:02 | 50.31325 | 3.13747 | 24272 ft | 472 kts | 43° |
| 2026-05-07 20:02 | 50.33662 | 3.17266 | 23875 ft | 469 kts | 43° |
| 2026-05-07 20:02 | 50.35988 | 3.20773 | 23479 ft | 467 kts | 43° |
| 2026-05-07 20:02 | 50.38341 | 3.24326 | 23075 ft | 464 kts | 43° |
| 2026-05-07 20:03 | 50.40636 | 3.27798 | 22680 ft | 461 kts | 43° |
| 2026-05-07 20:03 | 50.42912 | 3.31283 | 22287 ft | 458 kts | 43° |
| 2026-05-07 20:03 | 50.45177 | 3.34806 | 22055 ft | 454 kts | 44° |
| 2026-05-07 20:03 | 50.47401 | 3.38273 | 22061 ft | 456 kts | 43° |
| 2026-05-07 20:04 | 50.49685 | 3.41731 | 21854 ft | 457 kts | 42° |
| 2026-05-07 20:04 | 50.51978 | 3.45140 | 21593 ft | 453 kts | 42° |
| 2026-05-07 20:04 | 50.54259 | 3.48506 | 21333 ft | 451 kts | 42° |
| 2026-05-07 20:04 | 50.56572 | 3.51907 | 21066 ft | 447 kts | 42° |
| 2026-05-07 20:05 | 50.58776 | 3.55149 | 20806 ft | 431 kts | 42° |
| 2026-05-07 20:05 | 50.60919 | 3.58303 | 20547 ft | 417 kts | 42° |
| 2026-05-07 20:05 | 50.63008 | 3.61384 | 20309 ft | 403 kts | 42° |
| 2026-05-07 20:05 | 50.65013 | 3.64347 | 20106 ft | 389 kts | 41° |
| 2026-05-07 20:06 | 50.66933 | 3.67189 | 19944 ft | 375 kts | 43° |
| 2026-05-07 20:06 | 50.68809 | 3.69965 | 19626 ft | 366 kts | 43° |
| 2026-05-07 20:06 | 50.70660 | 3.72703 | 19142 ft | 363 kts | 43° |
| 2026-05-07 20:06 | 50.72477 | 3.75391 | 18650 ft | 360 kts | 43° |
| 2026-05-07 20:07 | 50.74348 | 3.77970 | 18135 ft | 357 kts | 35° |
| 2026-05-07 20:07 | 50.76469 | 3.79942 | 17635 ft | 353 kts | 26° |
| 2026-05-07 20:07 | 50.78680 | 3.81582 | 17281 ft | 345 kts | 23° |
| 2026-05-07 20:07 | 50.80842 | 3.83089 | 17164 ft | 332 kts | 22° |
| 2026-05-07 20:08 | 50.82906 | 3.84511 | 16894 ft | 325 kts | 22° |
| 2026-05-07 20:08 | 50.84992 | 3.85946 | 16476 ft | 323 kts | 22° |
| 2026-05-07 20:08 | 50.87023 | 3.87340 | 16054 ft | 321 kts | 22° |
| 2026-05-07 20:08 | 50.89075 | 3.88755 | 15635 ft | 319 kts | 24° |
| 2026-05-07 20:09 | 50.90900 | 3.90700 | 15203 ft | 318 kts | 45° |
| 2026-05-07 20:09 | 50.92150 | 3.93536 | 14815 ft | 315 kts | 63° |
| 2026-05-07 20:09 | 50.93082 | 3.96673 | 14412 ft | 313 kts | 66° |
| 2026-05-07 20:10 | 50.94745 | 4.02800 | 14065 ft | 293 kts | 67° |
| 2026-05-07 20:10 | 50.95535 | 4.05747 | 13837 ft | 286 kts | 67° |
| 2026-05-07 20:10 | 50.96298 | 4.08612 | 13500 ft | 284 kts | 67° |
| 2026-05-07 20:10 | 50.97065 | 4.11510 | 13168 ft | 283 kts | 67° |
| 2026-05-07 20:11 | 50.97817 | 4.14360 | 12821 ft | 281 kts | 67° |
| 2026-05-07 20:11 | 50.98562 | 4.17188 | 12473 ft | 279 kts | 67° |
| 2026-05-07 20:11 | 50.99303 | 4.20010 | 12148 ft | 278 kts | 67° |
| 2026-05-07 20:11 | 51.00043 | 4.22833 | 11823 ft | 277 kts | 67° |
| 2026-05-07 20:12 | 51.00778 | 4.25638 | 11495 ft | 275 kts | 67° |
| 2026-05-07 20:12 | 51.01505 | 4.28414 | 11176 ft | 273 kts | 67° |
| 2026-05-07 20:12 | 51.02235 | 4.31194 | 10861 ft | 271 kts | 67° |
| 2026-05-07 20:12 | 51.02953 | 4.33930 | 10547 ft | 269 kts | 67° |
| 2026-05-07 20:13 | 51.03667 | 4.36651 | 10234 ft | 267 kts | 67° |
| 2026-05-07 20:13 | 51.04377 | 4.39357 | 9918 ft | 266 kts | 67° |
| 2026-05-07 20:13 | 51.05087 | 4.42069 | 9602 ft | 264 kts | 67° |
| 2026-05-07 20:13 | 51.05793 | 4.44761 | 9287 ft | 263 kts | 67° |
| 2026-05-07 20:14 | 51.06490 | 4.47420 | 8967 ft | 261 kts | 67° |
| 2026-05-07 20:14 | 51.07185 | 4.50078 | 8654 ft | 260 kts | 67° |
| 2026-05-07 20:14 | 51.07874 | 4.52714 | 8265 ft | 259 kts | 67° |
| 2026-05-07 20:14 | 51.08560 | 4.55337 | 7884 ft | 257 kts | 67° |
| 2026-05-07 20:15 | 51.09246 | 4.57947 | 7521 ft | 255 kts | 67° |
| 2026-05-07 20:15 | 51.09922 | 4.60511 | 7199 ft | 252 kts | 67° |
| 2026-05-07 20:15 | 51.10554 | 4.62911 | 6870 ft | 250 kts | 67° |
| 2026-05-07 20:15 | 51.11234 | 4.65489 | 6500 ft | 248 kts | 68° |
| 2026-05-07 20:16 | 51.11893 | 4.67984 | 6180 ft | 246 kts | 68° |
| 2026-05-07 20:16 | 51.12555 | 4.70488 | 5902 ft | 245 kts | 68° |
| 2026-05-07 20:16 | 51.13195 | 4.72903 | 5637 ft | 245 kts | 68° |
| 2026-05-07 20:16 | 51.13829 | 4.75373 | 5364 ft | 243 kts | 73° |
| 2026-05-07 20:17 | 51.14032 | 4.78013 | 5035 ft | 242 kts | 99° |
| 2026-05-07 20:17 | 51.13319 | 4.80408 | 4761 ft | 241 kts | 131° |
| 2026-05-07 20:17 | 51.11998 | 4.81814 | 4529 ft | 242 kts | 161° |
| 2026-05-07 20:17 | 51.10386 | 4.82104 | 4255 ft | 243 kts | 180° |
| 2026-05-07 20:18 | 51.08697 | 4.81948 | 4038 ft | 238 kts | 182° |
| 2026-05-07 20:18 | 51.07050 | 4.81759 | 3838 ft | 235 kts | 182° |
| 2026-05-07 20:18 | 51.05436 | 4.81366 | 3634 ft | 234 kts | 199° |
| 2026-05-07 20:18 | 51.04074 | 4.79986 | 3445 ft | 236 kts | 220° |
| 2026-05-07 20:19 | 51.02875 | 4.78213 | 3311 ft | 229 kts | 223° |
| 2026-05-07 20:19 | 51.01745 | 4.76499 | 3187 ft | 221 kts | 223° |
| 2026-05-07 20:19 | 51.00645 | 4.74834 | 3057 ft | 214 kts | 223° |
| 2026-05-07 20:19 | 50.99590 | 4.73235 | 2931 ft | 207 kts | 223° |
| 2026-05-07 20:20 | 50.98566 | 4.71677 | 2827 ft | 198 kts | 223° |
| 2026-05-07 20:20 | 50.97602 | 4.70166 | 2720 ft | 193 kts | 226° |
| 2026-05-07 20:20 | 50.96769 | 4.68538 | 2596 ft | 194 kts | 234° |
| 2026-05-07 20:20 | 50.96077 | 4.66701 | 2469 ft | 194 kts | 242° |
| 2026-05-07 20:21 | 50.95461 | 4.64794 | 2185 ft | 196 kts | 243° |
| 2026-05-07 20:21 | 50.94883 | 4.62899 | 1933 ft | 186 kts | 244° |
| 2026-05-07 20:21 | 50.94353 | 4.61068 | 1648 ft | 177 kts | 245° |
| 2026-05-07 20:21 | 50.93875 | 4.59382 | 1415 ft | 165 kts | 245° |
| 2026-05-07 20:22 | 50.93416 | 4.57774 | 1205 ft | 153 kts | 246° |
| 2026-05-07 20:22 | 50.92982 | 4.56257 | 1005 ft | 149 kts | 245° |
| 2026-05-07 20:22 | 50.92561 | 4.54797 | 802 ft | 144 kts | 245° |
| 2026-05-07 20:22 | 50.92151 | 4.53366 | 618 ft | 142 kts | 245° |
| 2026-05-07 20:23 | 50.91732 | 4.51940 | 437 ft | 142 kts | 246° |
| 2026-05-07 20:23 | 50.91325 | 4.50523 | 244 ft | 140 kts | 246° |
| 2026-05-07 20:23 | 50.90934 | 4.49170 | 124 ft | 117 kts | 245° |
| 2026-05-07 20:23 | 50.90683 | 4.48302 | 125 ft | 57 kts | 245° |
| 2026-05-07 20:24 | 50.90527 | 4.47805 | 126 ft | 38 kts | 234° |
| 2026-05-07 20:24 | 50.90403 | 4.47618 | 127 ft | 17 kts | 217° |
| 2026-05-07 20:24 | 50.90329 | 4.47535 | 128 ft | 10 kts | 215° |
| 2026-05-07 20:24 | 50.90275 | 4.47476 | 129 ft | 8 kts | 216° |
| 2026-05-07 20:25 | 50.90238 | 4.47440 | 129 ft | 5 kts | 194° |
| 2026-05-07 20:25 | 50.90194 | 4.47480 | 130 ft | 10 kts | 102° |
| 2026-05-07 20:25 | 50.90218 | 4.47591 | 130 ft | 13 kts | 65° |
| 2026-05-07 20:25 | 50.90262 | 4.47744 | 129 ft | 9 kts | 66° |
| 2026-05-07 20:26 | 50.90246 | 4.47782 | 130 ft | 4 kts | 159° |
| 2026-05-07 20:26 | 50.90222 | 4.47799 | 130 ft | 3 kts | 155° |
| 2026-05-07 20:26 | 50.90205 | 4.47812 | 131 ft | 2 kts | 155° |
| 2026-05-07 20:26 | 50.90196 | 4.47819 | 131 ft | 0 kts | 155° |